Terminal Aerodrome Forecast
Issued by NWS Medford, OR

Home | Current Version | Previous Version | Text Only | Print | Product List | Glossary On
Versions: 1 2 3 4 5 6 7 8 9 10 11 12
136
FTUS46 KMFR 192335
TAFMFR
TAF
KMFR 192335Z 2000/2024 32012G20KT P6SM -RA SCT025 OVC050
     FM200500 VRB03KT P6SM -SHRA SCT025 OVC035
     FM201800 30008KT P6SM -SHRA SCT025 OVC045=

USA.gov is the U.S. government's official web portal to all federal, state and local government web resources and services.